Time;durP1;ratioP1;P1;durP2;ratioP2;P2;SDS_P1;SDS_P2;PMS_P1;PMS_P2;Temp;Humidity;BMP_temperature;BMP_pressure;BME280_temperature;BME280_humidity;BME280_pressure;Samples;Min_cycle;Max_cycle;Signal;HPM_P1;HPM_P2
2021/08/29 00:02:17;;;;;;;8.65;3.80;;;12.40;88.50;;;;;;5034580;28;20056;-76
2021/08/29 00:04:42;;;;;;;6.70;4.05;;;12.40;88.40;;;;;;5034578;28;20076;-76
2021/08/29 00:07:08;;;;;;;5.13;3.45;;;12.40;88.50;;;;;;5052663;28;20040;-77
2021/08/29 00:09:34;;;;;;;4.47;3.10;;;12.40;88.50;;;;;;5052308;28;20033;-77
2021/08/29 00:12:00;;;;;;;3.40;3.10;;;12.40;88.60;;;;;;5052739;28;20029;-77
2021/08/29 00:14:26;;;;;;;3.67;2.95;;;12.40;88.70;;;;;;5034721;28;20036;-76
2021/08/29 00:16:51;;;;;;;4.50;3.70;;;12.50;88.80;;;;;;5034592;28;20037;-77
2021/08/29 00:19:17;;;;;;;4.10;3.45;;;12.40;88.50;;;;;;5052455;28;20025;-77
2021/08/29 00:21:43;;;;;;;6.15;3.60;;;12.50;88.50;;;;;;5051291;28;20032;-76
2021/08/29 00:24:09;;;;;;;4.93;4.05;;;12.40;88.30;;;;;;5018378;28;20542;-77
2021/08/29 00:26:35;;;;;;;5.38;3.65;;;12.40;88.10;;;;;;5034423;28;20030;-76
2021/08/29 00:29:01;;;;;;;4.72;3.60;;;12.30;88.20;;;;;;5034619;28;20111;-76
2021/08/29 00:31:26;;;;;;;4.57;3.33;;;12.30;88.50;;;;;;5034553;28;20044;-76
2021/08/29 00:33:53;;;;;;;6.10;4.25;;;12.30;88.60;;;;;;5035798;28;20029;-76
2021/08/29 00:36:18;;;;;;;5.55;4.15;;;12.30;88.50;;;;;;5037974;28;20029;-76
2021/08/29 00:38:44;;;;;;;6.20;4.70;;;12.30;88.40;;;;;;5037926;28;20078;-76
2021/08/29 00:41:10;;;;;;;5.82;4.40;;;12.20;88.10;;;;;;5038287;28;20041;-76
2021/08/29 00:43:36;;;;;;;5.80;4.25;;;12.30;88.30;;;;;;5038220;28;20025;-76
2021/08/29 00:46:01;;;;;;;7.68;4.15;;;12.20;88.30;;;;;;5037803;28;20055;-76
2021/08/29 00:48:27;;;;;;;6.68;3.97;;;12.20;88.30;;;;;;5037947;28;20029;-76
2021/08/29 00:50:53;;;;;;;6.70;4.00;;;12.20;88.20;;;;;;5038049;28;20139;-76
2021/08/29 00:53:21;;;;;;;5.50;4.20;;;12.20;88.00;;;;;;5037959;28;20067;-76
2021/08/29 00:55:48;;;;;;;6.88;4.53;;;12.20;87.90;;;;;;5037881;28;20033;-76
2021/08/29 00:58:13;;;;;;;6.82;4.47;;;12.20;87.80;;;;;;5038134;28;20051;-76
2021/08/29 01:00:44;;;;;;;4.55;3.80;;;12.20;87.80;;;;;;5021650;28;20025;-76
2021/08/29 01:03:20;;;;;;;6.18;3.65;;;12.10;88.00;;;;;;5037705;28;20021;-76
2021/08/29 01:06:00;;;;;;;8.00;3.63;;;12.10;88.10;;;;;;5037844;28;20056;-76
2021/08/29 01:08:31;;;;;;;4.40;3.83;;;12.10;88.40;;;;;;5037783;28;20531;-75
2021/08/29 01:10:59;;;;;;;5.35;3.28;;;12.10;88.50;;;;;;5037841;28;20033;-76
2021/08/29 01:13:31;;;;;;;6.35;3.63;;;12.00;88.50;;;;;;5055623;28;20100;-76
2021/08/29 01:16:03;;;;;;;3.25;2.78;;;12.10;88.80;;;;;;5037553;28;20037;-75
2021/08/29 01:18:30;;;;;;;5.20;3.13;;;12.20;88.80;;;;;;5055429;28;20049;-76
2021/08/29 01:21:06;;;;;;;6.57;3.53;;;12.10;88.50;;;;;;5037231;28;20515;-76
2021/08/29 01:23:36;;;;;;;5.18;3.80;;;12.10;88.30;;;;;;5037583;28;20025;-75
2021/08/29 01:26:24;;;;;;;7.25;3.60;;;12.10;88.30;;;;;;5037402;28;20029;-76
2021/08/29 01:28:59;;;;;;;3.47;3.17;;;12.10;88.50;;;;;;5024850;28;20082;-76
2021/08/29 01:31:27;;;;;;;8.05;3.92;;;12.10;88.60;;;;;;5055046;28;20477;-75
2021/08/29 01:33:56;;;;;;;3.92;3.42;;;12.10;88.70;;;;;;5037171;28;20473;-75
2021/08/29 01:36:22;;;;;;;4.25;3.25;;;12.20;88.60;;;;;;5037005;28;20400;-75
2021/08/29 01:38:48;;;;;;;5.72;3.85;;;12.20;88.40;;;;;;5054777;28;20108;-75
2021/08/29 01:41:17;;;;;;;6.00;3.08;;;12.20;88.40;;;;;;5037147;28;20033;-74
2021/08/29 01:43:43;;;;;;;5.25;2.95;;;12.20;88.40;;;;;;5037157;28;20017;-75
2021/08/29 01:46:09;;;;;;;5.05;4.00;;;12.20;88.40;;;;;;5036869;28;20033;-75
2021/08/29 01:48:38;;;;;;;5.43;3.50;;;12.20;88.20;;;;;;5054618;28;20044;-75
2021/08/29 01:51:04;;;;;;;6.85;3.40;;;12.20;88.10;;;;;;5037201;28;20029;-76
2021/08/29 01:53:30;;;;;;;7.60;3.35;;;12.20;87.90;;;;;;5036752;28;20067;-76
2021/08/29 01:55:56;;;;;;;4.03;3.17;;;12.20;87.80;;;;;;5054584;28;20052;-77
2021/08/29 01:58:21;;;;;;;4.82;3.63;;;12.20;87.90;;;;;;5036867;28;20060;-76
2021/08/29 02:00:55;;;;;;;6.53;4.00;;;12.20;87.90;;;;;;5036528;28;20029;-75
2021/08/29 02:03:22;;;;;;;3.13;2.83;;;12.20;88.00;;;;;;5054592;28;20033;-75
2021/08/29 02:05:52;;;;;;;3.83;3.30;;;12.20;87.90;;;;;;5036692;28;20400;-75
2021/08/29 02:08:19;;;;;;;5.40;3.33;;;12.20;87.90;;;;;;5036551;28;20029;-75
2021/08/29 02:10:51;;;;;;;4.00;3.00;;;12.10;87.80;;;;;;5054545;28;20092;-75
2021/08/29 02:13:22;;;;;;;6.50;3.65;;;12.10;88.00;;;;;;5036518;28;20040;-76
2021/08/29 02:16:13;;;;;;;12.10;4.30;;;12.10;88.00;;;;;;5036412;28;20082;-76
2021/08/29 02:18:42;;;;;;;8.05;4.05;;;12.10;87.80;;;;;;5036326;28;20552;-76
2021/08/29 02:21:08;;;;;;;4.88;3.90;;;12.10;88.00;;;;;;5036471;28;20033;-75
2021/08/29 02:23:34;;;;;;;6.43;4.63;;;12.10;88.10;;;;;;5036077;28;20100;-75
2021/08/29 02:26:00;;;;;;;5.70;4.30;;;12.00;88.20;;;;;;5036224;28;20110;-75
2021/08/29 02:28:27;;;;;;;4.97;4.10;;;12.00;88.20;;;;;;5036015;28;20029;-75
2021/08/29 02:30:53;;;;;;;4.88;4.10;;;12.00;88.30;;;;;;5036167;28;20546;-75
2021/08/29 02:33:19;;;;;;;7.10;4.78;;;12.00;88.40;;;;;;5035986;28;20071;-75
2021/08/29 02:35:46;;;;;;;6.35;4.25;;;12.00;88.60;;;;;;5036115;28;20382;-75
2021/08/29 02:38:12;;;;;;;6.35;4.40;;;12.00;88.60;;;;;;5036241;28;20534;-75
2021/08/29 02:40:39;;;;;;;9.75;4.68;;;12.00;88.50;;;;;;5036165;28;20469;-75
2021/08/29 02:43:07;;;;;;;5.95;4.43;;;12.00;88.50;;;;;;5035874;28;20021;-75
2021/08/29 02:45:34;;;;;;;4.43;3.92;;;12.00;88.40;;;;;;5036069;28;20021;-76
2021/08/29 02:48:01;;;;;;;4.85;3.92;;;12.00;88.60;;;;;;5041477;28;20021;-75
2021/08/29 02:50:28;;;;;;;5.65;4.30;;;12.00;88.70;;;;;;5053950;28;20484;-75
2021/08/29 02:52:54;;;;;;;4.75;4.18;;;12.00;88.70;;;;;;5035695;28;20033;-75
2021/08/29 02:55:20;;;;;;;6.90;4.20;;;12.00;88.70;;;;;;5035964;28;20025;-75
2021/08/29 02:57:51;;;;;;;5.68;4.07;;;12.00;88.50;;;;;;5035135;28;20045;-75
2021/08/29 03:00:17;;;;;;;4.43;3.70;;;12.10;88.60;;;;;;5035768;28;20025;-75
2021/08/29 03:02:43;;;;;;;3.47;3.17;;;12.10;88.50;;;;;;5035593;28;20029;-75
2021/08/29 03:05:10;;;;;;;4.82;3.33;;;12.10;88.40;;;;;;5035290;28;20052;-76
2021/08/29 03:07:35;;;;;;;4.05;3.65;;;12.10;88.30;;;;;;5035630;28;20504;-76
2021/08/29 03:10:02;;;;;;;6.90;3.88;;;12.10;88.40;;;;;;5035509;28;20036;-76
2021/08/29 03:12:28;;;;;;;5.53;3.63;;;12.20;88.40;;;;;;5053393;28;20025;-76
2021/08/29 03:14:54;;;;;;;5.15;3.70;;;12.20;88.40;;;;;;5018875;28;20029;-76
2021/08/29 03:17:21;;;;;;;5.35;3.97;;;12.10;88.10;;;;;;5053494;28;20115;-76
2021/08/29 03:19:49;;;;;;;8.65;3.80;;;12.20;88.10;;;;;;5053394;28;20025;-76
2021/08/29 03:22:15;;;;;;;4.45;3.75;;;12.20;88.00;;;;;;5035466;28;20067;-75
2021/08/29 03:24:43;;;;;;;5.55;3.90;;;12.20;88.00;;;;;;5053019;28;20178;-76
2021/08/29 03:27:09;;;;;;;9.43;4.35;;;12.20;88.10;;;;;;5035423;28;20035;-76
2021/08/29 03:29:35;;;;;;;5.82;4.32;;;12.20;88.10;;;;;;5035000;28;20025;-76
2021/08/29 03:32:02;;;;;;;5.30;4.80;;;12.10;88.30;;;;;;5035344;28;20428;-77
2021/08/29 03:34:28;;;;;;;7.18;6.47;;;12.10;88.30;;;;;;5035148;28;20031;-76
2021/08/29 03:36:54;;;;;;;14.15;11.27;;;12.20;88.30;;;;;;5035021;28;20064;-75
2021/08/29 03:39:20;;;;;;;11.02;8.35;;;12.20;88.50;;;;;;5034825;28;20381;-75
2021/08/29 03:41:45;;;;;;;8.93;5.72;;;12.10;88.50;;;;;;5034854;28;20032;-75
2021/08/29 03:44:13;;;;;;;7.05;4.88;;;12.20;88.50;;;;;;5051684;28;20025;-75
2021/08/29 03:46:41;;;;;;;6.03;4.50;;;12.20;88.50;;;;;;5034997;28;20159;-75
2021/08/29 03:49:06;;;;;;;7.07;5.15;;;12.20;88.60;;;;;;5034799;28;20481;-76
2021/08/29 03:51:34;;;;;;;4.40;4.00;;;12.10;88.80;;;;;;5051455;28;20031;-75
2021/08/29 03:54:01;;;;;;;6.63;4.03;;;12.10;89.00;;;;;;5034992;28;20021;-75
2021/08/29 03:56:28;;;;;;;5.22;4.00;;;12.10;88.80;;;;;;5034808;28;20036;-76
2021/08/29 03:58:54;;;;;;;5.40;4.00;;;12.00;88.90;;;;;;5034741;28;20538;-75
2021/08/29 04:01:20;;;;;;;6.93;4.68;;;12.00;88.90;;;;;;5052458;28;20029;-76
2021/08/29 04:03:46;;;;;;;8.02;4.80;;;12.00;89.00;;;;;;5034179;28;20060;-76
2021/08/29 04:06:13;;;;;;;5.13;4.00;;;12.00;89.10;;;;;;5035020;28;20071;-76
2021/08/29 04:08:44;;;;;;;8.35;5.13;;;12.10;89.30;;;;;;5020704;28;20029;-76
2021/08/29 04:11:10;;;;;;;7.47;5.25;;;12.10;89.40;;;;;;5038942;28;20025;-75
2021/08/29 04:13:39;;;;;;;5.35;4.78;;;12.10;89.40;;;;;;5038379;28;20073;-75
2021/08/29 04:16:06;;;;;;;8.68;5.90;;;12.10;89.40;;;;;;5038783;28;20025;-75
2021/08/29 04:18:38;;;;;;;7.10;5.20;;;12.00;89.40;;;;;;5038027;28;20037;-75
2021/08/29 04:21:04;;;;;;;8.68;5.65;;;12.00;89.60;;;;;;5038634;28;20113;-75
2021/08/29 04:23:29;;;;;;;7.63;5.10;;;12.00;89.80;;;;;;5038154;28;20475;-75
2021/08/29 04:25:55;;;;;;;7.30;5.90;;;12.00;89.90;;;;;;5022036;28;20578;-75
2021/08/29 04:28:21;;;;;;;7.78;5.55;;;12.00;89.80;;;;;;5038391;28;20021;-75
2021/08/29 04:30:50;;;;;;;8.65;5.57;;;12.00;89.90;;;;;;5038427;28;20120;-76
2021/08/29 04:33:16;;;;;;;6.22;4.97;;;12.00;89.90;;;;;;5056138;28;20056;-76
2021/08/29 04:35:41;;;;;;;6.75;4.95;;;12.00;90.20;;;;;;5037993;28;20060;-76
2021/08/29 04:38:07;;;;;;;10.23;6.10;;;12.00;90.30;;;;;;5038062;28;20029;-76
2021/08/29 04:40:33;;;;;;;9.18;5.47;;;12.00;90.30;;;;;;5037984;28;20116;-75
2021/08/29 04:42:59;;;;;;;7.13;5.50;;;11.90;90.30;;;;;;5038042;28;20484;-75
2021/08/29 04:45:24;;;;;;;6.20;5.03;;;11.90;90.40;;;;;;5036937;28;20124;-76
2021/08/29 04:47:50;;;;;;;5.68;4.20;;;11.90;90.70;;;;;;5037994;28;20480;-75
2021/08/29 04:50:16;;;;;;;7.68;4.85;;;11.90;90.90;;;;;;5038040;28;20032;-75
2021/08/29 04:52:41;;;;;;;8.00;4.70;;;12.00;90.70;;;;;;5037942;28;20021;-75
2021/08/29 04:55:08;;;;;;;7.68;4.50;;;12.00;90.70;;;;;;5038303;28;20021;-76
2021/08/29 04:57:35;;;;;;;7.13;4.97;;;12.00;90.70;;;;;;5037700;28;20037;-75
2021/08/29 05:00:01;;;;;;;7.43;5.68;;;12.10;90.90;;;;;;5037974;28;20052;-76
2021/08/29 05:02:27;;;;;;;5.85;4.75;;;12.10;91.00;;;;;;5037964;28;20060;-75
2021/08/29 05:04:52;;;;;;;6.88;4.60;;;12.10;90.90;;;;;;5054278;28;20512;-75
2021/08/29 05:07:18;;;;;;;7.05;5.93;;;12.10;90.80;;;;;;5054497;28;20108;-75
2021/08/29 05:09:43;;;;;;;6.47;5.72;;;12.10;90.90;;;;;;5037740;28;20025;-75
2021/08/29 05:12:09;;;;;;;11.35;6.57;;;12.20;90.60;;;;;;5055639;28;20025;-75
2021/08/29 05:14:35;;;;;;;8.82;5.90;;;12.10;90.50;;;;;;5037491;28;20025;-75
2021/08/29 05:17:00;;;;;;;9.80;5.75;;;12.10;90.70;;;;;;5037208;28;20032;-76
2021/08/29 05:19:26;;;;;;;9.68;6.63;;;12.00;91.10;;;;;;5036794;28;20028;-76
2021/08/29 05:21:52;;;;;;;8.55;5.72;;;12.00;91.40;;;;;;5037337;28;20020;-76
2021/08/29 05:24:17;;;;;;;7.47;5.00;;;12.00;91.70;;;;;;5053603;28;20033;-76
2021/08/29 05:26:43;;;;;;;6.15;5.22;;;12.00;91.60;;;;;;5054145;28;20366;-75
2021/08/29 05:29:08;;;;;;;6.22;5.32;;;12.00;91.40;;;;;;5037185;28;20040;-75
2021/08/29 05:31:34;;;;;;;6.38;5.10;;;12.10;91.70;;;;;;5037145;28;20435;-76
2021/08/29 05:34:00;;;;;;;8.20;5.00;;;12.20;91.60;;;;;;5037198;28;20451;-76
2021/08/29 05:36:25;;;;;;;8.57;6.03;;;12.10;91.50;;;;;;5036962;28;20086;-75
2021/08/29 05:38:51;;;;;;;7.20;5.07;;;12.20;91.50;;;;;;5037209;28;20059;-76
2021/08/29 05:41:16;;;;;;;5.20;4.70;;;12.30;91.40;;;;;;5036957;28;20127;-75
2021/08/29 05:43:42;;;;;;;7.68;5.45;;;12.30;91.30;;;;;;5037090;28;20112;-75
2021/08/29 05:46:07;;;;;;;7.75;5.88;;;12.30;91.30;;;;;;5054712;28;20044;-75
2021/08/29 05:48:33;;;;;;;8.55;5.38;;;12.30;91.00;;;;;;5053582;28;20108;-75
2021/08/29 05:50:59;;;;;;;8.48;5.05;;;12.30;91.00;;;;;;5037155;28;20036;-75
2021/08/29 05:53:24;;;;;;;8.35;5.50;;;12.20;91.00;;;;;;5036974;28;20021;-75
2021/08/29 05:55:50;;;;;;;5.88;4.43;;;12.30;91.30;;;;;;5036584;28;20408;-75
2021/08/29 05:58:16;;;;;;;7.50;5.10;;;12.30;91.50;;;;;;5054843;28;20025;-75
2021/08/29 06:00:41;;;;;;;6.15;5.05;;;12.30;91.40;;;;;;5036744;28;20133;-75
2021/08/29 06:03:07;;;;;;;9.32;6.00;;;12.40;91.40;;;;;;5036927;28;20078;-75
2021/08/29 06:05:32;;;;;;;11.73;7.90;;;12.40;91.40;;;;;;5053221;28;20471;-75
2021/08/29 06:08:01;;;;;;;18.38;13.18;;;12.40;91.40;;;;;;5036756;28;20416;-76
2021/08/29 06:10:26;;;;;;;20.50;14.05;;;12.40;91.40;;;;;;5036665;28;20037;-76
2021/08/29 06:12:52;;;;;;;15.93;11.32;;;12.40;91.30;;;;;;5036260;28;20047;-76
2021/08/29 06:15:17;;;;;;;12.00;8.77;;;12.50;91.40;;;;;;5036141;28;20029;-76
2021/08/29 06:17:43;;;;;;;11.65;8.32;;;12.40;91.20;;;;;;5036261;28;20032;-75
2021/08/29 06:20:09;;;;;;;9.75;7.50;;;12.40;91.30;;;;;;5036445;28;20075;-76
2021/08/29 06:22:35;;;;;;;9.23;6.97;;;12.40;91.50;;;;;;5035788;28;20087;-76
2021/08/29 06:25:01;;;;;;;9.93;6.18;;;12.40;91.60;;;;;;5036085;28;20020;-76
2021/08/29 06:27:26;;;;;;;8.85;6.18;;;12.50;91.90;;;;;;5036098;28;20028;-76
2021/08/29 06:29:52;;;;;;;7.32;5.53;;;12.40;91.80;;;;;;5035953;28;20021;-75
2021/08/29 06:32:17;;;;;;;9.18;6.30;;;12.50;91.80;;;;;;5035080;28;20029;-75
2021/08/29 06:34:43;;;;;;;8.88;5.93;;;12.60;91.70;;;;;;5036194;28;20078;-76
2021/08/29 06:37:08;;;;;;;8.55;5.90;;;12.60;91.70;;;;;;5035773;28;20033;-76
2021/08/29 06:39:34;;;;;;;7.80;6.13;;;12.60;91.70;;;;;;5035893;28;20048;-75
2021/08/29 06:41:59;;;;;;;6.88;5.03;;;12.70;91.60;;;;;;5035794;28;20377;-75
2021/08/29 06:44:25;;;;;;;7.47;5.93;;;12.60;91.40;;;;;;5035727;28;20504;-75
2021/08/29 06:46:50;;;;;;;7.03;5.43;;;12.60;91.30;;;;;;5034629;28;20493;-76
2021/08/29 06:49:16;;;;;;;7.93;5.40;;;12.60;91.40;;;;;;5053530;28;20094;-75
2021/08/29 06:51:48;;;;;;;;;;;12.60;91.00;;;;;;5090828;27;20428;-76
2021/08/29 06:54:14;;;;;;;;;;;12.60;90.80;;;;;;5091114;28;19908;-77
2021/08/29 06:56:40;;;;;;;6.45;4.97;;;12.60;91.00;;;;;;5090533;28;19904;-77
2021/08/29 06:59:05;;;;;;;5.50;4.75;;;12.50;91.90;;;;;;5090457;28;20108;-77
2021/08/29 07:01:31;;;;;;;5.07;3.90;;;12.50;91.30;;;;;;5090541;28;20173;-77
2021/08/29 07:03:56;;;;;;;4.07;3.28;;;12.50;91.70;;;;;;5090492;28;20384;-77
2021/08/29 07:06:22;;;;;;;5.38;4.22;;;12.50;91.80;;;;;;5090376;28;20419;-77
2021/08/29 07:08:47;;;;;;;9.27;4.50;;;12.60;92.00;;;;;;5090326;28;20425;-77
2021/08/29 07:11:13;;;;;;;7.57;4.95;;;12.60;92.10;;;;;;5090107;28;20036;-77
2021/08/29 07:13:39;;;;;;;4.80;3.40;;;12.70;92.00;;;;;;5090157;28;20047;-77
2021/08/29 07:16:04;;;;;;;3.92;3.22;;;12.70;91.60;;;;;;5090129;28;20020;-77
2021/08/29 07:18:30;;;;;;;4.57;3.33;;;12.70;90.90;;;;;;5090165;28;20094;-77
2021/08/29 07:20:55;;;;;;;6.15;3.13;;;12.70;90.70;;;;;;5090037;28;20816;-77
2021/08/29 07:23:21;;;;;;;5.75;3.75;;;12.80;90.60;;;;;;5088789;28;20028;-78
2021/08/29 07:25:46;;;;;;;5.32;3.83;;;12.80;90.70;;;;;;5090060;28;20417;-77
2021/08/29 07:28:12;;;;;;;4.15;3.50;;;12.80;90.60;;;;;;5089984;28;20468;-77
2021/08/29 07:30:37;;;;;;;3.28;2.92;;;12.80;90.50;;;;;;5089679;28;20373;-76
2021/08/29 07:33:03;;;;;;;2.78;2.30;;;12.90;90.70;;;;;;5089906;28;20052;-77
2021/08/29 07:35:28;;;;;;;3.28;2.63;;;12.90;90.70;;;;;;5089819;28;20025;-77
2021/08/29 07:37:54;;;;;;;3.22;2.90;;;12.90;90.60;;;;;;5089831;28;20020;-77
2021/08/29 07:40:20;;;;;;;3.50;2.78;;;13.00;90.40;;;;;;5089834;28;20020;-77
2021/08/29 07:42:48;;;;;;;3.45;2.40;;;13.00;90.40;;;;;;5089663;28;20468;-77
2021/08/29 07:45:15;;;;;;;3.15;2.55;;;13.00;90.30;;;;;;5089682;28;20051;-75
2021/08/29 07:47:40;;;;;;;4.88;2.80;;;13.00;90.30;;;;;;5089893;28;20052;-79
2021/08/29 07:50:07;;;;;;;3.95;2.60;;;13.00;90.30;;;;;;5089553;28;20080;-78
2021/08/29 07:52:32;;;;;;;4.97;2.47;;;13.00;90.40;;;;;;5089966;28;20020;-77
2021/08/29 07:54:58;;;;;;;7.43;2.63;;;13.10;91.90;;;;;;5089892;28;20021;-76
2021/08/29 07:57:24;;;;;;;9.60;3.00;;;13.30;93.90;;;;;;5089610;28;20081;-77
2021/08/29 07:59:49;;;;;;;9.77;2.47;;;13.80;93.50;;;;;;5089276;28;20073;-76
2021/08/29 08:02:16;;;;;;;3.15;2.15;;;14.20;90.40;;;;;;5081205;28;20032;-77
2021/08/29 08:04:42;;;;;;;4.03;3.10;;;14.40;88.30;;;;;;5075950;28;20016;-77
2021/08/29 08:07:08;;;;;;;5.53;2.45;;;14.60;86.80;;;;;;5075935;28;20054;-77
2021/08/29 08:09:34;;;;;;;6.90;1.95;;;14.60;85.70;;;;;;5075854;28;20029;-76
2021/08/29 08:11:59;;;;;;;4.28;2.28;;;14.90;85.00;;;;;;5076877;28;20020;-77
2021/08/29 08:14:25;;;;;;;4.72;1.90;;;15.00;83.80;;;;;;5076756;28;20557;-77
2021/08/29 08:16:50;;;;;;;2.00;1.52;;;15.10;82.90;;;;;;5075949;28;20464;-77
2021/08/29 08:19:16;;;;;;;2.33;1.75;;;15.00;83.00;;;;;;5075818;28;20027;-77
2021/08/29 08:21:41;;;;;;;3.15;1.58;;;15.00;83.10;;;;;;5075625;28;20017;-76
2021/08/29 08:24:07;;;;;;;2.15;1.70;;;15.00;83.10;;;;;;5074230;28;20040;-77
2021/08/29 08:26:33;;;;;;;2.70;2.00;;;15.10;82.70;;;;;;5075459;28;20025;-77
2021/08/29 08:28:59;;;;;;;3.00;2.20;;;15.10;82.40;;;;;;5075447;28;20377;-77
2021/08/29 08:31:24;;;;;;;7.13;3.53;;;15.00;83.00;;;;;;5075319;28;20032;-76
2021/08/29 08:33:50;;;;;;;3.10;2.25;;;14.80;83.50;;;;;;5075370;28;20028;-76
2021/08/29 08:36:15;;;;;;;4.32;2.53;;;14.80;84.70;;;;;;5075280;28;20025;-76
2021/08/29 08:38:41;;;;;;;2.15;1.95;;;14.40;86.30;;;;;;5075204;28;20025;-76
2021/08/29 08:41:07;;;;;;;3.13;2.58;;;14.30;87.40;;;;;;5075089;28;20024;-75
2021/08/29 08:43:32;;;;;;;4.50;1.70;;;14.30;87.70;;;;;;5075014;28;20071;-75
2021/08/29 08:45:58;;;;;;;3.25;2.00;;;14.40;87.60;;;;;;5074943;28;20028;-75
2021/08/29 08:48:26;;;;;;;2.08;1.50;;;14.50;88.30;;;;;;5074695;28;20468;-75
2021/08/29 08:50:52;;;;;;;1.75;1.65;;;14.60;87.00;;;;;;5074718;28;20052;-83
2021/08/29 08:53:22;;;;;;;2.33;1.50;;;14.70;87.10;;;;;;5075059;28;20052;-79
2021/08/29 08:55:50;;;;;;;26.58;6.55;;;14.80;86.70;;;;;;5074848;28;20066;-76
2021/08/29 08:58:16;;;;;;;37.22;7.10;;;14.90;86.50;;;;;;5074729;28;20020;-75
2021/08/29 09:00:44;;;;;;;11.68;3.60;;;15.00;86.30;;;;;;5074768;28;20606;-75
2021/08/29 09:03:10;;;;;;;14.05;3.00;;;15.20;85.80;;;;;;5074592;28;20052;-78
2021/08/29 09:05:39;;;;;;;22.85;4.97;;;15.20;85.50;;;;;;5074277;28;20027;-76
2021/08/29 09:08:06;;;;;;;0.85;0.73;;;15.20;86.20;;;;;;5074534;28;20070;-80
2021/08/29 09:10:31;;;;;;;2.53;1.00;;;15.10;86.40;;;;;;5074324;28;20079;-76
2021/08/29 09:12:59;;;;;;;2.10;1.25;;;14.80;87.50;;;;;;5072572;28;20044;-75
2021/08/29 09:15:25;;;;;;;3.60;1.98;;;14.50;88.50;;;;;;5073981;28;20021;-76
2021/08/29 09:17:51;;;;;;;4.05;2.80;;;14.50;89.20;;;;;;5074392;28;20017;-76
2021/08/29 09:20:38;;;;;;;3.20;2.03;;;14.50;89.50;;;;;;5074360;28;20097;-76
2021/08/29 09:23:07;;;;;;;1.70;1.20;;;14.40;90.00;;;;;;5074397;28;20024;-77
2021/08/29 09:25:40;;;;;;;0.90;0.90;;;14.30;91.10;;;;;;5074026;28;20024;-76
2021/08/29 09:28:13;;;;;;;1.73;0.82;;;14.30;91.40;;;;;;5074174;28;20021;-76
2021/08/29 09:30:46;;;;;;;1.15;0.85;;;14.40;90.70;;;;;;5074067;28;20381;-76
2021/08/29 09:33:12;;;;;;;0.77;0.70;;;14.40;90.90;;;;;;5074052;28;20476;-76
2021/08/29 09:35:39;;;;;;;2.80;0.68;;;14.30;90.60;;;;;;5073870;28;20544;-77
2021/08/29 09:38:10;;;;;;;0.88;0.60;;;14.30;90.80;;;;;;5073718;28;20427;-77
2021/08/29 09:40:37;;;;;;;0.70;0.70;;;14.40;91.00;;;;;;5073829;28;20043;-76
2021/08/29 09:43:05;;;;;;;1.50;0.60;;;14.30;91.30;;;;;;5073768;28;20031;-77
2021/08/29 09:45:40;;;;;;;2.08;0.57;;;14.30;92.20;;;;;;5073786;28;20032;-77
2021/08/29 09:48:14;;;;;;;0.40;0.40;;;14.30;91.80;;;;;;5073784;28;20023;-76
2021/08/29 09:50:45;;;;;;;0.82;0.65;;;14.40;91.50;;;;;;5073408;28;20040;-76
2021/08/29 09:53:16;;;;;;;0.68;0.68;;;14.40;91.00;;;;;;5073733;28;20099;-76
2021/08/29 09:55:48;;;;;;;1.58;0.95;;;14.60;91.60;;;;;;5073490;28;20035;-77
2021/08/29 09:58:19;;;;;;;0.80;0.50;;;14.70;90.20;;;;;;5073539;28;20103;-76
2021/08/29 10:01:08;;;;;;;2.03;0.65;;;14.60;88.90;;;;;;5072185;28;20021;-76
2021/08/29 10:03:34;;;;;;;1.58;0.50;;;14.80;89.80;;;;;;5073491;28;20074;-74
2021/08/29 10:06:16;;;;;;;1.77;1.02;;;14.80;89.40;;;;;;5073448;28;20025;-74
2021/08/29 10:08:43;;;;;;;0.90;0.65;;;14.70;89.80;;;;;;5073338;28;20036;-77
2021/08/29 10:11:10;;;;;;;0.98;0.90;;;14.70;89.30;;;;;;5073340;28;20036;-76
2021/08/29 10:13:37;;;;;;;1.23;0.85;;;15.00;89.90;;;;;;5073343;28;20030;-76
2021/08/29 10:16:05;;;;;;;0.60;0.60;;;15.40;88.60;;;;;;5073380;28;20028;-75
2021/08/29 10:18:34;;;;;;;0.93;0.60;;;15.60;87.50;;;;;;5071990;28;20021;-75
2021/08/29 10:21:01;;;;;;;1.20;0.80;;;15.60;86.00;;;;;;5073252;28;20051;-75
2021/08/29 10:23:26;;;;;;;0.68;0.40;;;15.70;86.10;;;;;;5073187;28;20052;-75
2021/08/29 10:25:55;;;;;;;0.35;0.35;;;15.70;86.20;;;;;;5072903;28;20066;-75
2021/08/29 10:28:26;;;;;;;0.40;0.40;;;15.60;85.60;;;;;;5073163;28;20025;-76
2021/08/29 10:30:55;;;;;;;1.42;0.85;;;15.70;86.30;;;;;;5073060;28;20035;-76
2021/08/29 10:33:22;;;;;;;0.95;0.68;;;15.70;86.80;;;;;;5073072;28;20037;-75
2021/08/29 10:35:49;;;;;;;0.70;0.70;;;15.70;86.90;;;;;;5073011;28;20025;-76
2021/08/29 10:38:20;;;;;;;1.40;0.50;;;15.60;86.60;;;;;;5072985;28;20091;-76
2021/08/29 10:40:46;;;;;;;0.50;0.50;;;15.70;86.60;;;;;;5073051;28;20058;-76
2021/08/29 10:43:14;;;;;;;0.98;0.50;;;15.80;87.00;;;;;;5072825;28;20020;-76
2021/08/29 10:45:40;;;;;;;0.45;0.40;;;16.10;84.90;;;;;;5072850;28;20025;-75
2021/08/29 10:48:09;;;;;;;5.57;0.60;;;16.20;83.50;;;;;;5072846;28;20079;-75
2021/08/29 10:50:36;;;;;;;1.95;0.60;;;16.10;84.00;;;;;;5072527;28;20048;-75
2021/08/29 10:53:29;;;;;;;1.10;1.00;;;16.00;85.00;;;;;;5072760;28;20024;-75
2021/08/29 10:56:29;;;;;;;0.70;0.70;;;16.00;86.10;;;;;;5072855;28;20028;-75
2021/08/29 10:59:07;;;;;;;0.93;0.85;;;16.10;85.40;;;;;;5072871;28;20482;-77
2021/08/29 11:01:44;;;;;;;0.52;0.50;;;16.10;85.00;;;;;;5072691;28;20028;-76
2021/08/29 11:04:19;;;;;;;0.32;0.32;;;16.20;83.60;;;;;;5072760;28;20508;-77
2021/08/29 11:06:53;;;;;;;0.57;0.50;;;16.40;84.20;;;;;;5072814;28;20029;-77
2021/08/29 11:09:37;;;;;;;0.95;0.57;;;16.70;83.30;;;;;;5072827;28;20025;-77
2021/08/29 11:12:26;;;;;;;2.40;0.57;;;17.10;82.50;;;;;;5072654;28;20388;-77
2021/08/29 11:14:54;;;;;;;1.40;0.50;;;17.40;80.90;;;;;;5072493;28;20016;-77
2021/08/29 11:17:27;;;;;;;0.60;0.50;;;17.20;79.70;;;;;;5072675;28;20028;-77
2021/08/29 11:20:14;;;;;;;0.60;0.50;;;17.20;79.20;;;;;;5072532;28;20496;-76
2021/08/29 11:22:43;;;;;;;0.65;0.50;;;17.20;79.00;;;;;;5072238;28;20067;-76
2021/08/29 11:25:19;;;;;;;0.70;0.60;;;16.80;78.40;;;;;;5072774;28;20398;-77
2021/08/29 11:27:56;;;;;;;1.42;0.57;;;16.70;79.80;;;;;;5072569;28;20019;-76
2021/08/29 11:30:34;;;;;;;0.95;0.70;;;16.70;81.50;;;;;;5072476;28;20040;-77
2021/08/29 11:33:08;;;;;;;1.27;1.00;;;16.70;81.60;;;;;;5072388;28;20472;-76
2021/08/29 11:35:39;;;;;;;1.10;0.82;;;16.60;80.80;;;;;;5072474;28;20052;-77
2021/08/29 11:38:10;;;;;;;0.35;0.35;;;16.30;80.90;;;;;;5076096;28;20025;-77
2021/08/29 11:40:56;;;;;;;0.30;0.30;;;15.90;83.10;;;;;;5076357;28;20111;-77
2021/08/29 11:43:28;;;;;;;0.73;0.50;;;15.60;84.10;;;;;;5076296;28;20487;-76
2021/08/29 11:46:16;;;;;;;0.52;0.52;;;15.40;84.30;;;;;;5075079;28;20392;-77
2021/08/29 11:48:58;;;;;;;0.50;0.50;;;15.30;84.90;;;;;;5076096;28;20380;-77
2021/08/29 11:51:33;;;;;;;0.55;0.55;;;15.20;85.00;;;;;;5075803;28;20051;-76
2021/08/29 11:54:01;;;;;;;0.50;0.50;;;15.10;85.60;;;;;;5076062;28;20017;-77
2021/08/29 11:56:29;;;;;;;0.80;0.63;;;15.10;86.40;;;;;;5075953;28;20466;-76
2021/08/29 11:58:55;;;;;;;0.55;0.52;;;15.00;87.30;;;;;;5076030;28;20048;-77
2021/08/29 12:01:23;;;;;;;0.73;0.73;;;14.90;87.70;;;;;;5075863;28;20056;-76
2021/08/29 12:03:53;;;;;;;1.75;1.08;;;15.00;88.20;;;;;;5075846;28;20035;-77
2021/08/29 12:06:40;;;;;;;2.35;1.00;;;15.10;88.70;;;;;;5075778;28;20024;-76
2021/08/29 12:09:17;;;;;;;2.05;0.93;;;15.30;88.40;;;;;;5075876;28;20020;-76
2021/08/29 12:11:43;;;;;;;3.40;0.82;;;15.40;87.20;;;;;;5075599;28;20047;-76
2021/08/29 12:14:17;;;;;;;2.10;0.80;;;15.50;86.90;;;;;;5075740;28;20093;-75
2021/08/29 12:16:50;;;;;;;1.23;1.10;;;15.70;87.00;;;;;;5075601;28;20024;-79
2021/08/29 12:19:26;;;;;;;0.82;0.80;;;15.90;87.10;;;;;;5075855;28;20025;-79
2021/08/29 12:21:53;;;;;;;2.53;1.02;;;16.00;84.40;;;;;;5075586;28;20086;-76
2021/08/29 12:24:28;;;;;;;1.67;1.00;;;16.20;84.50;;;;;;5075583;28;20035;-77
2021/08/29 12:27:00;;;;;;;1.25;1.10;;;16.40;84.40;;;;;;5075476;28;20051;-76
2021/08/29 12:29:27;;;;;;;1.33;1.23;;;16.20;82.80;;;;;;5075409;28;20040;-77
2021/08/29 12:31:53;;;;;;;1.27;1.17;;;15.90;83.30;;;;;;5075279;28;20510;-76
2021/08/29 12:34:26;;;;;;;2.45;1.20;;;15.80;84.40;;;;;;5074132;28;20028;-76
2021/08/29 12:37:06;;;;;;;2.13;1.45;;;15.50;84.80;;;;;;5075372;28;20056;-77
2021/08/29 12:39:31;;;;;;;1.30;1.13;;;15.30;86.40;;;;;;5073799;28;20025;-75
2021/08/29 12:42:20;;;;;;;3.55;1.88;;;15.20;87.70;;;;;;5075178;28;20103;-76
2021/08/29 12:44:46;;;;;;;3.97;1.83;;;15.30;87.80;;;;;;5075016;28;20033;-75
2021/08/29 12:47:12;;;;;;;1.40;1.30;;;15.40;87.50;;;;;;5075029;28;20380;-75
2021/08/29 12:49:39;;;;;;;1.63;1.27;;;15.60;87.10;;;;;;5074580;28;20123;-75
2021/08/29 12:52:07;;;;;;;1.48;1.00;;;16.00;86.40;;;;;;5074983;28;20032;-75